地図

経路データ

SID SEASON NUMBER BASIN SUBBASIN NAME ISO_TIME NATURE LAT LON WMO_WIND WMO_PRES WMO_AGENCY TRACK_TYPE DIST2LAND LANDFALL IFLAG USA_AGENCY USA_ATCF_ID USA_LAT USA_LON USA_RECORD USA_STATUS USA_WIND USA_PRES USA_SSHS USA_R34_NE USA_R34_SE USA_R34_SW USA_R34_NW USA_R50_NE USA_R50_SE USA_R50_SW USA_R50_NW USA_R64_NE USA_R64_SE USA_R64_SW USA_R64_NW USA_POCI USA_ROCI USA_RMW USA_EYE TOKYO_LAT TOKYO_LON TOKYO_GRADE TOKYO_WIND TOKYO_PRES TOKYO_R50_DIR TOKYO_R50_LONG TOKYO_R50_SHORT TOKYO_R30_DIR TOKYO_R30_LONG TOKYO_R30_SHORT TOKYO_LAND CMA_LAT CMA_LON CMA_CAT CMA_WIND CMA_PRES HKO_LAT HKO_LON HKO_CAT HKO_WIND HKO_PRES NEWDELHI_LAT NEWDELHI_LON NEWDELHI_GRADE NEWDELHI_WIND NEWDELHI_PRES NEWDELHI_CI NEWDELHI_DP NEWDELHI_POCI REUNION_LAT REUNION_LON REUNION_TYPE REUNION_WIND REUNION_PRES REUNION_TNUM REUNION_CI REUNION_RMW REUNION_R34_NE REUNION_R34_SE REUNION_R34_SW REUNION_R34_NW REUNION_R50_NE REUNION_R50_SE REUNION_R50_SW REUNION_R50_NW REUNION_R64_NE REUNION_R64_SE REUNION_R64_SW REUNION_R64_NW BOM_LAT BOM_LON BOM_TYPE BOM_WIND BOM_PRES BOM_TNUM BOM_CI BOM_RMW BOM_R34_NE BOM_R34_SE BOM_R34_SW BOM_R34_NW BOM_R50_NE BOM_R50_SE BOM_R50_SW BOM_R50_NW BOM_R64_NE BOM_R64_SE BOM_R64_SW BOM_R64_NW BOM_ROCI BOM_POCI BOM_EYE BOM_POS_METHOD BOM_PRES_METHOD NADI_LAT NADI_LON NADI_CAT NADI_WIND NADI_PRES WELLINGTON_LAT WELLINGTON_LON WELLINGTON_WIND WELLINGTON_PRES DS824_LAT DS824_LON DS824_STAGE DS824_WIND DS824_PRES TD9636_LAT TD9636_LON TD9636_STAGE TD9636_WIND TD9636_PRES TD9635_LAT TD9635_LON TD9635_WIND TD9635_PRES TD9635_ROCI NEUMANN_LAT NEUMANN_LON NEUMANN_CLASS NEUMANN_WIND NEUMANN_PRES MLC_LAT MLC_LON MLC_CLASS MLC_WIND MLC_PRES USA_GUST BOM_GUST BOM_GUST_PER REUNION_GUST REUNION_GUST_PER USA_SEAHGT USA_SEARAD_NE USA_SEARAD_SE USA_SEARAD_SW USA_SEARAD_NW STORM_SPEED STORM_DIR
2021031S14152 2021 10 SP EA LUCAS 2021-01-31 00:00:00 NR -13.9000 152.300 PROVISIONAL 408 408 O_____________ tcvitals SP172021 -13.9000 152.300 39 995 0 30 30 25 45 1001 180 45 7 108
2021031S14152 2021 10 SP EA LUCAS 2021-01-31 03:00:00 NR -14.0071 152.639 PROVISIONAL 433 433 P_____________ SP172021 -14.0071 152.639 45 992 0 60 40 32 72 1001 202 45 9 90
2021031S14152 2021 10 SP EA LUCAS 2021-01-31 06:00:00 NR -13.9000 153.200 PROVISIONAL 458 456 O_____________ tcvitals SP172021 -13.9000 153.200 51 989 0 90 50 40 100 1001 225 45 15 70
2021031S14152 2021 10 SP EA LUCAS 2021-01-31 09:00:00 NR -13.4779 154.119 PROVISIONAL 492 492 P_____________ SP172021 -13.4779 154.119 52 988 0 97 52 60 105 1001 217 42 21 68
2021031S14152 2021 10 SP EA LUCAS 2021-01-31 12:00:00 NR -13.1000 155.200 PROVISIONAL 564 533 O_____________ tcvitals SP172021 -13.1000 155.200 54 987 0 105 55 80 110 1001 210 40 21 81
2021031S14152 2021 10 SP EA LUCAS 2021-01-31 15:00:00 NR -13.1377 156.252 PROVISIONAL 529 490 P_____________ SP172021 -13.1377 156.252 54 988 0 77 40 70 90 1001 210 40 20 99
2021031S14152 2021 10 SP EA LUCAS 2021-01-31 18:00:00 NR -13.4000 157.200 PROVISIONAL 492 483 O_____________ tcvitals SP172021 -13.4000 157.200 54 989 0 50 25 60 70 1001 210 40 16 111
2021031S14152 2021 10 SP EA LUCAS 2021-01-31 21:00:00 NR -13.7185 157.821 PROVISIONAL 488 483 P_____________ SP172021 -13.7185 157.821 52 990 0 82 25 60 70 1001 202 27 14 119
2021031S14152 2021 10 SP EA LUCAS 2021-02-01 00:00:00 NR -14.1000 158.500 PROVISIONAL 501 468 O_____________ tcvitals SP172021 -14.1000 158.500 51 992 0 115 25 60 70 1002 195 14 19 112
2021031S14152 2021 10 SP EA LUCAS 2021-02-01 03:00:00 NR -14.4362 159.670 PROVISIONAL 463 451 P_____________ SP172021 -14.4362 159.670 52 989 0 117 67 62 105 1001 195 14 24 107
2021031S14152 2021 10 SP MM LUCAS 2021-02-01 06:00:00 NR -14.8000 160.900 PROVISIONAL 458 456 O_____________ tcvitals SP172021 -14.8000 160.900 54 986 0 120 110 65 140 1000 195 14 22 111
2021031S14152 2021 10 SP MM LUCAS 2021-02-01 09:00:00 NR -15.2342 161.825 PROVISIONAL 492 429 P_____________ SP172021 -15.2342 161.825 59 983 0 132 100 67 142 1000 195 14 19 119
2021031S14152 2021 10 SP MM LUCAS 2021-02-01 12:00:00 NR -15.7000 162.600 PROVISIONAL 429 361 O_____________ tcvitals SP172021 -15.7000 162.600 64 980 1 145 90 70 145 1000 195 14 18 123
2021031S14152 2021 10 SP MM LUCAS 2021-02-01 15:00:00 NR -16.1798 163.352 PROVISIONAL 354 308 P_____________ SP172021 -16.1798 163.352 62 981 0 145 90 70 145 1000 195 14 16 124
2021031S14152 2021 10 SP MM LUCAS 2021-02-01 18:00:00 NR -16.6000 164.000 PROVISIONAL 308 273 O_____________ tcvitals SP172021 -16.6000 164.000 60 983 0 145 90 70 145 1000 195 14 13 120
2021031S14152 2021 10 SP MM LUCAS 2021-02-01 21:00:00 NR -16.8196 164.524 PROVISIONAL 273 247 P_____________ SP172021 -16.8196 164.524 52 986 0 145 90 75 140 1000 190 27 11 118
2021031S14152 2021 10 SP MM LUCAS 2021-02-02 00:00:00 NR -17.1000 165.000 PROVISIONAL 247 236 O_____________ tcvitals SP172021 -17.1000 165.000 45 990 0 145 90 80 135 1000 185 40 13 131
2021031S14152 2021 10 SP MM LUCAS 2021-02-02 03:00:00 NR -17.6976 165.572 PROVISIONAL 233 231 P_____________ SP172021 -17.6976 165.572 45 990 0 190 100 82 102 1000 202 40 17 141
2021031S14152 2021 10 SP MM LUCAS 2021-02-02 06:00:00 NR -18.4000 166.100 PROVISIONAL 250 242 O_____________ tcvitals SP172021 -18.4000 166.100 45 990 0 235 110 85 70 1000 220 40 16 146
2021031S14152 2021 10 SP MM LUCAS 2021-02-02 09:00:00 NR -19.0223 166.495 PROVISIONAL 242 213 P_____________ SP172021 -19.0223 166.495 48 989 0 187 110 90 72 1000 220 40 14 151
2021031S14152 2021 10 SP MM LUCAS 2021-02-02 12:00:00 NR -19.6000 166.800 PROVISIONAL 213 187 O_____________ tcvitals SP172021 -19.6000 166.800 51 988 0 140 110 95 75 1000 220 40 12 151
2021031S14152 2021 10 SP MM LUCAS 2021-02-02 15:00:00 NR -20.0925 167.117 PROVISIONAL 187 154 P_____________ SP172021 -20.0925 167.117 45 989 0 105 107 115 87 1000 225 40 11 155
2021031S14152 2021 10 SP MM LUCAS 2021-02-02 18:00:00 NR -20.6000 167.300 PROVISIONAL 154 106 O_____________ tcvitals SP172021 -20.6000 167.300 39 991 0 70 105 135 100 1000 230 40 12 174
2021031S14152 2021 10 SP MM LUCAS 2021-02-02 21:00:00 NR -21.2649 167.261 PROVISIONAL 98 30 P_____________ SP172021 -21.2649 167.261 39 990 0 72 92 122 82 1000 230 50 13 188
2021031S14152 2021 10 SP MM LUCAS 2021-02-03 00:00:00 NR -21.9000 167.100 PROVISIONAL 30 0 O_____________ tcvitals SP172021 -21.9000 167.100 39 990 0 75 80 110 65 1000 230 60 12 195
2021031S14152 2021 10 SP MM LUCAS 2021-02-03 03:00:00 NR -22.3975 166.935 PROVISIONAL 0 0 P_____________ SP172021 -22.3975 166.935 39 990 0 70 122 130 67 1000 210 60 9 199
2021031S14152 2021 10 SP MM LUCAS 2021-02-03 06:00:00 NR -22.7000 166.800 PROVISIONAL 33 33 O_____________ tcvitals SP172021 -22.7000 166.800 39 990 0 65 165 150 70 1000 190 60 4 196
2021031S14152 2021 10 SP MM LUCAS 2021-02-03 09:00:00 NR -22.7674 166.815 PROVISIONAL 44 33 P_____________ SP172021 -22.7674 166.815 39 990 0 62 172 165 60 1000 207 60 0 0
2021031S14152 2021 10 SP MM LUCAS 2021-02-03 12:00:00 NR -22.7000 166.800 PROVISIONAL 33 33 O_____________ tcvitals SP172021 -22.7000 166.800 39 991 0 60 180 180 50 1001 225 60 2 301
2021031S14152 2021 10 SP MM LUCAS 2021-02-03 15:00:00 NR -22.6500 166.602 PROVISIONAL 24 24 P_____________ SP172021 -22.6500 166.602 34 994 0 1002 212 52 5 282
2021031S14152 2021 10 SP MM LUCAS 2021-02-03 18:00:00 NR -22.6000 166.300 PROVISIONAL 35 35 O_____________ tcvitals SP172021 -22.6000 166.300 29 997 -1 1003 200 45 6 278
2021031S14152 2021 10 SP MM LUCAS 2021-02-03 21:00:00 NR -22.5552 165.912 PROVISIONAL 59 59 P_____________ SP172021 -22.5552 165.912 27 998 -1 1003 192 45 6 270
2021031S14152 2021 10 SP MM LUCAS 2021-02-04 00:00:00 NR -22.6000 165.600 PROVISIONAL 75 75 O_____________ tcvitals SP172021 -22.6000 165.600 25 1000 -1 1003 185 45 4 235
2021031S14152 2021 10 SP MM LUCAS 2021-02-04 03:00:00 NR -22.8024 165.525 PROVISIONAL 99 99 P_____________ SP172021 -22.8024 165.525 25 999 -1 1003 185 45 5 178
2021031S14152 2021 10 SP MM LUCAS 2021-02-04 06:00:00 NR -23.1000 165.600 PROVISIONAL 121 O_____________ tcvitals SP172021 -23.1000 165.600 25 999 -1 1003 185 45 6 166

デジタル台風データ・検索

IBTrACS Databaseについて

本データベースは、米国NOAAが公開する1842年以降の世界の熱帯低気圧のベストトラックデータアーカイブInternational Best Track Archive for Climate Stewardship (IBTrACS)を、ウェブで閲覧しやすい形式に変換したものです。

最終更新日:2021-10-27